KRYY/RYY METAR and TAF weather

Enter ICAO airport designator
Station Type Date Time Source
KRYY METAR 2020/09/19 04:50 UTC NOAA

KRYY 190450Z AUTO 00000KT 10SM CLR 19/17 A3007 RMK AO2 SLP904 T01890167 TSNO $


Station Type Date Time Source
KRYY Decoded METAR 2020/09/19 04:50 UTC NOAA

Marietta, Cobb County-McCollum Field Airport, GA, United States (KRYY) 34-00-47N 084-35-55W
Sep 19, 2020 - 12:50 AM EDT / 2020.09.19 0450 UTC
Wind: Calm:0
Visibility: 10 mile(s):0
Sky conditions: clear
Temperature: 66.0 F (18.9 C)
Dew Point: 62.1 F (16.7 C)
Relative Humidity: 87%
Pressure (altimeter): 30.07 in. Hg (1018 hPa)
ob: KRYY 190450Z AUTO 00000KT 10SM CLR 19/17 A3007 RMK AO2 SLP904 T01890167 TSNO
cycle: 5

Station Type Date Time Source
KRYY TAF 2020/09/18 18:39 UTC NOAA

TAF KRYY 181736Z 1818/1918 VRB03KT P6SM SCT025 BKN250
FM182100 35005KT P6SM SCT040 SCT090 BKN250
FM190600 07006KT P6SM BKN035 BKN120
FM191500 08012KT P6SM BKN040 OVC120

Example: see airport list